Saint Morgan, Illinois
Current Conditions -  °F | °C
As of 7:58 AM on Thursday 27 Nov 2014 (Local Time) from KBLV Reporting Station
Unknown Precip Unknown Precip  
Wind Chill: 18°   Ceiling: 1300
Heat Index: 29°   Visibility: 10mi
Dew Point: 27°   Wind: 13mph
Humidity: 94%   Direction: 320°NW
Pressure: 30.44"   Gusts: 20mph
Location:  38.6397°N, 89.6153°W
Report Text: KBLV 271358Z AUTO 32011G17KT 10SM UP BKN013 OVC019 M02/M03 A3044 RMK AO2 UPB1354 SLP317 P0000 T10181027
Loading
Personal Weather Stations






























Interactive Weather Map New forecast layout! Learn more

10-Day Weather Forecast

Advertisements
Track Severe Weather on mobile